sensor_id;sensor_type;location;lat;lon;timestamp;noise_LAeq;noise_LA_min;noise_LA_max;noise_LA01;noise_LA95
65653;Laerm;52350;51.546;7.002;2022-08-20T00:01:21;33.18;30.90;40.82;;
65653;Laerm;52350;51.546;7.002;2022-08-20T00:03:47;37.05;31.17;50.85;;
65653;Laerm;52350;51.546;7.002;2022-08-20T00:06:16;33.26;30.91;48.15;;
65653;Laerm;52350;51.546;7.002;2022-08-20T00:08:43;47.73;33.65;64.78;;
65653;Laerm;52350;51.546;7.002;2022-08-20T00:11:12;46.99;30.98;65.52;;
65653;Laerm;52350;51.546;7.002;2022-08-20T00:13:44;33.16;31.28;35.53;;
65653;Laerm;52350;51.546;7.002;2022-08-20T00:16:12;33.08;31.58;34.91;;
65653;Laerm;52350;51.546;7.002;2022-08-20T00:18:38;32.88;31.04;46.48;;
65653;Laerm;52350;51.546;7.002;2022-08-20T00:21:07;33.26;31.12;43.04;;
65653;Laerm;52350;51.546;7.002;2022-08-20T00:23:41;33.23;31.53;36.10;;
65653;Laerm;52350;51.546;7.002;2022-08-20T00:26:08;33.01;31.03;35.64;;
65653;Laerm;52350;51.546;7.002;2022-08-20T00:28:34;33.69;31.42;37.04;;
65653;Laerm;52350;51.546;7.002;2022-08-20T00:31:02;33.07;31.25;36.65;;
65653;Laerm;52350;51.546;7.002;2022-08-20T00:33:30;33.10;30.79;35.91;;
65653;Laerm;52350;51.546;7.002;2022-08-20T00:35:56;33.15;31.55;35.40;;
65653;Laerm;52350;51.546;7.002;2022-08-20T00:38:23;33.14;31.07;44.41;;
65653;Laerm;52350;51.546;7.002;2022-08-20T00:40:54;33.06;31.28;41.64;;
65653;Laerm;52350;51.546;7.002;2022-08-20T00:43:39;33.37;31.44;51.98;;
65653;Laerm;52350;51.546;7.002;2022-08-20T00:46:14;36.31;31.47;47.23;;
65653;Laerm;52350;51.546;7.002;2022-08-20T00:48:41;34.03;31.46;41.18;;
65653;Laerm;52350;51.546;7.002;2022-08-20T00:51:16;35.34;32.85;58.94;;
65653;Laerm;52350;51.546;7.002;2022-08-20T00:53:43;36.21;34.06;48.78;;
65653;Laerm;52350;51.546;7.002;2022-08-20T00:56:10;34.99;32.45;53.15;;
65653;Laerm;52350;51.546;7.002;2022-08-20T00:58:38;34.43;32.86;48.49;;
65653;Laerm;52350;51.546;7.002;2022-08-20T01:01:05;34.57;32.87;40.55;;
65653;Laerm;52350;51.546;7.002;2022-08-20T01:03:31;35.56;32.70;45.50;;
65653;Laerm;52350;51.546;7.002;2022-08-20T01:05:57;34.63;32.13;52.00;;
65653;Laerm;52350;51.546;7.002;2022-08-20T01:08:23;35.26;33.56;46.49;;
65653;Laerm;52350;51.546;7.002;2022-08-20T01:10:51;35.32;33.45;51.27;;
65653;Laerm;52350;51.546;7.002;2022-08-20T01:13:28;35.07;33.01;57.23;;
65653;Laerm;52350;51.546;7.002;2022-08-20T01:15:55;37.11;33.42;57.96;;
65653;Laerm;52350;51.546;7.002;2022-08-20T01:18:24;35.87;33.57;60.05;;
65653;Laerm;52350;51.546;7.002;2022-08-20T01:20:55;35.38;33.29;50.11;;
65653;Laerm;52350;51.546;7.002;2022-08-20T01:26:12;36.03;34.18;57.68;;
65653;Laerm;52350;51.546;7.002;2022-08-20T01:28:45;35.78;34.09;44.14;;
65653;Laerm;52350;51.546;7.002;2022-08-20T01:31:15;37.66;32.97;50.85;;
65653;Laerm;52350;51.546;7.002;2022-08-20T01:33:41;34.23;32.24;46.60;;
65653;Laerm;52350;51.546;7.002;2022-08-20T01:36:08;33.71;32.13;50.81;;
65653;Laerm;52350;51.546;7.002;2022-08-20T01:38:35;33.73;31.75;47.73;;
65653;Laerm;52350;51.546;7.002;2022-08-20T01:43:32;34.71;33.08;53.10;;
65653;Laerm;52350;51.546;7.002;2022-08-20T01:45:58;34.53;32.66;52.88;;
65653;Laerm;52350;51.546;7.002;2022-08-20T01:48:24;33.96;32.33;48.10;;
65653;Laerm;52350;51.546;7.002;2022-08-20T01:50:58;33.98;32.27;40.93;;
65653;Laerm;52350;51.546;7.002;2022-08-20T01:53:33;36.38;31.99;49.23;;
65653;Laerm;52350;51.546;7.002;2022-08-20T01:56:01;33.71;31.95;45.85;;
65653;Laerm;52350;51.546;7.002;2022-08-20T01:58:27;33.71;31.83;39.30;;
65653;Laerm;52350;51.546;7.002;2022-08-20T02:00:55;33.65;31.87;44.88;;
65653;Laerm;52350;51.546;7.002;2022-08-20T02:03:21;33.75;32.18;41.90;;
65653;Laerm;52350;51.546;7.002;2022-08-20T02:05:46;33.69;31.72;44.47;;
65653;Laerm;52350;51.546;7.002;2022-08-20T02:08:12;33.44;31.60;38.33;;
65653;Laerm;52350;51.546;7.002;2022-08-20T02:10:37;33.21;31.32;44.35;;
65653;Laerm;52350;51.546;7.002;2022-08-20T02:13:03;36.67;31.39;48.61;;
65653;Laerm;52350;51.546;7.002;2022-08-20T02:15:30;37.93;31.38;54.35;;
65653;Laerm;52350;51.546;7.002;2022-08-20T02:17:55;32.96;31.25;38.49;;
65653;Laerm;52350;51.546;7.002;2022-08-20T02:20:26;34.28;31.25;46.42;;
65653;Laerm;52350;51.546;7.002;2022-08-20T02:22:58;33.23;31.26;43.90;;
65653;Laerm;52350;51.546;7.002;2022-08-20T02:25:26;33.01;30.82;48.02;;
65653;Laerm;52350;51.546;7.002;2022-08-20T02:27:54;32.97;31.18;44.75;;
65653;Laerm;52350;51.546;7.002;2022-08-20T02:30:24;38.91;31.32;53.76;;
65653;Laerm;52350;51.546;7.002;2022-08-20T02:32:51;33.04;31.14;47.37;;
65653;Laerm;52350;51.546;7.002;2022-08-20T02:35:17;33.84;31.00;42.70;;
65653;Laerm;52350;51.546;7.002;2022-08-20T02:37:44;33.07;31.22;36.41;;
65653;Laerm;52350;51.546;7.002;2022-08-20T02:40:16;33.62;31.31;39.94;;
65653;Laerm;52350;51.546;7.002;2022-08-20T02:42:42;43.33;31.64;57.43;;
65653;Laerm;52350;51.546;7.002;2022-08-20T02:45:10;32.96;31.11;45.08;;
65653;Laerm;52350;51.546;7.002;2022-08-20T02:47:36;36.39;31.39;48.89;;
65653;Laerm;52350;51.546;7.002;2022-08-20T02:50:03;34.48;31.40;42.16;;
65653;Laerm;52350;51.546;7.002;2022-08-20T02:52:29;35.67;31.25;47.25;;
65653;Laerm;52350;51.546;7.002;2022-08-20T02:54:55;37.32;31.41;55.86;;
65653;Laerm;52350;51.546;7.002;2022-08-20T02:57:20;40.83;31.46;52.23;;
65653;Laerm;52350;51.546;7.002;2022-08-20T02:59:47;32.95;31.12;37.78;;
65653;Laerm;52350;51.546;7.002;2022-08-20T03:02:13;33.00;31.04;38.08;;
65653;Laerm;52350;51.546;7.002;2022-08-20T03:04:40;32.71;30.73;36.63;;
65653;Laerm;52350;51.546;7.002;2022-08-20T03:07:07;36.50;30.94;50.31;;
65653;Laerm;52350;51.546;7.002;2022-08-20T03:09:35;33.48;31.77;35.38;;
65653;Laerm;52350;51.546;7.002;2022-08-20T03:12:00;33.88;31.76;38.47;;
65653;Laerm;52350;51.546;7.002;2022-08-20T03:14:27;42.10;31.66;54.35;;
65653;Laerm;52350;51.546;7.002;2022-08-20T03:16:52;48.51;31.84;64.61;;
65653;Laerm;52350;51.546;7.002;2022-08-20T03:19:18;33.46;31.23;35.76;;
65653;Laerm;52350;51.546;7.002;2022-08-20T03:21:44;34.94;31.73;43.45;;
65653;Laerm;52350;51.546;7.002;2022-08-20T03:24:09;36.85;31.65;48.19;;
65653;Laerm;52350;51.546;7.002;2022-08-20T03:26:35;33.56;31.69;38.51;;
65653;Laerm;52350;51.546;7.002;2022-08-20T03:29:02;33.17;31.47;36.99;;
65653;Laerm;52350;51.546;7.002;2022-08-20T03:31:27;36.97;31.42;47.96;;
65653;Laerm;52350;51.546;7.002;2022-08-20T03:33:54;33.06;31.30;36.74;;
65653;Laerm;52350;51.546;7.002;2022-08-20T03:36:21;35.89;31.28;48.19;;
65653;Laerm;52350;51.546;7.002;2022-08-20T03:38:46;35.63;31.66;47.14;;
65653;Laerm;52350;51.546;7.002;2022-08-20T03:41:11;33.16;31.55;35.56;;
65653;Laerm;52350;51.546;7.002;2022-08-20T03:43:37;36.51;31.64;49.30;;
65653;Laerm;52350;51.546;7.002;2022-08-20T03:46:03;36.67;31.52;48.15;;
65653;Laerm;52350;51.546;7.002;2022-08-20T03:48:29;38.44;31.68;52.28;;
65653;Laerm;52350;51.546;7.002;2022-08-20T03:50:55;34.41;31.77;42.38;;
65653;Laerm;52350;51.546;7.002;2022-08-20T03:53:21;36.04;31.77;48.04;;
65653;Laerm;52350;51.546;7.002;2022-08-20T03:55:48;33.63;31.75;48.07;;
65653;Laerm;52350;51.546;7.002;2022-08-20T03:58:17;36.84;31.59;57.39;;
65653;Laerm;52350;51.546;7.002;2022-08-20T04:00:47;36.75;31.80;50.17;;
65653;Laerm;52350;51.546;7.002;2022-08-20T04:03:13;34.67;31.81;44.26;;
65653;Laerm;52350;51.546;7.002;2022-08-20T04:05:40;38.51;31.38;55.74;;
65653;Laerm;52350;51.546;7.002;2022-08-20T04:08:32;34.56;30.98;53.25;;
65653;Laerm;52350;51.546;7.002;2022-08-20T04:10:57;35.28;31.54;47.83;;
65653;Laerm;52350;51.546;7.002;2022-08-20T04:13:25;36.03;31.38;51.83;;
65653;Laerm;52350;51.546;7.002;2022-08-20T04:15:50;34.75;31.21;44.34;;
65653;Laerm;52350;51.546;7.002;2022-08-20T04:18:20;37.73;31.49;51.44;;
65653;Laerm;52350;51.546;7.002;2022-08-20T04:20:49;34.05;31.44;48.33;;
65653;Laerm;52350;51.546;7.002;2022-08-20T04:23:15;36.31;31.84;48.70;;
65653;Laerm;52350;51.546;7.002;2022-08-20T04:25:42;34.59;31.27;48.22;;
65653;Laerm;52350;51.546;7.002;2022-08-20T04:28:13;48.95;32.01;65.15;;
65653;Laerm;52350;51.546;7.002;2022-08-20T04:30:39;33.93;31.38;45.07;;
65653;Laerm;52350;51.546;7.002;2022-08-20T04:33:04;33.38;31.29;44.15;;
65653;Laerm;52350;51.546;7.002;2022-08-20T04:35:30;48.05;31.46;70.82;;
65653;Laerm;52350;51.546;7.002;2022-08-20T04:38:01;50.83;31.89;66.45;;
65653;Laerm;52350;51.546;7.002;2022-08-20T04:40:27;45.19;31.60;63.74;;
65653;Laerm;52350;51.546;7.002;2022-08-20T04:43:12;35.10;31.76;47.64;;
65653;Laerm;52350;51.546;7.002;2022-08-20T04:45:37;47.55;31.69;65.52;;
65653;Laerm;52350;51.546;7.002;2022-08-20T04:48:04;49.76;31.76;67.52;;
65653;Laerm;52350;51.546;7.002;2022-08-20T04:50:32;46.59;31.78;64.74;;
65653;Laerm;52350;51.546;7.002;2022-08-20T04:53:03;36.16;31.57;52.69;;
65653;Laerm;52350;51.546;7.002;2022-08-20T04:55:29;49.34;31.96;67.57;;
65653;Laerm;52350;51.546;7.002;2022-08-20T04:57:55;45.51;31.91;63.70;;
65653;Laerm;52350;51.546;7.002;2022-08-20T05:00:26;36.01;31.84;53.70;;
65653;Laerm;52350;51.546;7.002;2022-08-20T05:02:51;40.22;31.63;53.62;;
65653;Laerm;52350;51.546;7.002;2022-08-20T05:05:17;46.08;31.94;67.82;;
65653;Laerm;52350;51.546;7.002;2022-08-20T05:07:44;37.72;31.87;53.70;;
65653;Laerm;52350;51.546;7.002;2022-08-20T05:10:13;58.29;32.13;75.97;;
65653;Laerm;52350;51.546;7.002;2022-08-20T05:12:40;34.42;31.75;45.45;;
65653;Laerm;52350;51.546;7.002;2022-08-20T05:15:07;35.36;32.19;51.91;;
65653;Laerm;52350;51.546;7.002;2022-08-20T05:17:39;43.43;32.44;54.12;;
65653;Laerm;52350;51.546;7.002;2022-08-20T05:20:06;47.87;42.01;62.17;;
65653;Laerm;52350;51.546;7.002;2022-08-20T05:22:32;46.68;43.07;60.69;;
65653;Laerm;52350;51.546;7.002;2022-08-20T05:24:57;49.75;42.50;66.27;;
65653;Laerm;52350;51.546;7.002;2022-08-20T05:27:26;41.44;32.90;49.32;;
65653;Laerm;52350;51.546;7.002;2022-08-20T05:30:07;46.67;36.28;63.37;;
65653;Laerm;52350;51.546;7.002;2022-08-20T05:32:33;44.47;37.17;56.22;;
65653;Laerm;52350;51.546;7.002;2022-08-20T05:35:03;51.04;42.29;66.28;;
65653;Laerm;52350;51.546;7.002;2022-08-20T05:37:29;45.53;41.98;63.10;;
65653;Laerm;52350;51.546;7.002;2022-08-20T05:39:55;47.71;42.19;61.13;;
65653;Laerm;52350;51.546;7.002;2022-08-20T05:42:21;48.12;39.02;68.67;;
65653;Laerm;52350;51.546;7.002;2022-08-20T05:44:46;49.32;43.40;61.93;;
65653;Laerm;52350;51.546;7.002;2022-08-20T05:47:12;53.81;46.69;70.83;;
65653;Laerm;52350;51.546;7.002;2022-08-20T05:49:38;51.95;48.17;61.53;;
65653;Laerm;52350;51.546;7.002;2022-08-20T05:52:04;51.81;48.51;63.69;;
65653;Laerm;52350;51.546;7.002;2022-08-20T05:54:30;51.48;46.29;64.80;;
65653;Laerm;52350;51.546;7.002;2022-08-20T05:56:56;51.34;48.11;60.45;;
65653;Laerm;52350;51.546;7.002;2022-08-20T05:59:22;49.40;42.51;63.06;;
65653;Laerm;52350;51.546;7.002;2022-08-20T06:01:48;51.86;47.56;64.05;;
65653;Laerm;52350;51.546;7.002;2022-08-20T06:04:14;53.05;48.25;64.82;;
65653;Laerm;52350;51.546;7.002;2022-08-20T06:06:53;52.32;49.02;61.92;;
65653;Laerm;52350;51.546;7.002;2022-08-20T06:09:23;51.38;47.80;62.46;;
65653;Laerm;52350;51.546;7.002;2022-08-20T06:11:49;50.80;46.46;61.66;;
65653;Laerm;52350;51.546;7.002;2022-08-20T06:14:15;62.88;47.68;79.60;;
65653;Laerm;52350;51.546;7.002;2022-08-20T06:16:42;51.69;46.97;61.38;;
65653;Laerm;52350;51.546;7.002;2022-08-20T06:19:07;51.42;47.99;62.46;;
65653;Laerm;52350;51.546;7.002;2022-08-20T06:21:33;53.99;47.98;69.96;;
65653;Laerm;52350;51.546;7.002;2022-08-20T06:23:59;51.51;47.92;61.63;;
65653;Laerm;52350;51.546;7.002;2022-08-20T06:26:24;51.41;45.91;63.43;;
65653;Laerm;52350;51.546;7.002;2022-08-20T06:28:50;50.43;45.49;61.83;;
65653;Laerm;52350;51.546;7.002;2022-08-20T06:31:15;50.66;47.63;60.55;;
65653;Laerm;52350;51.546;7.002;2022-08-20T06:33:40;49.81;39.92;62.59;;
65653;Laerm;52350;51.546;7.002;2022-08-20T06:36:07;44.57;38.23;61.81;;
65653;Laerm;52350;51.546;7.002;2022-08-20T06:38:32;50.24;39.61;71.51;;
65653;Laerm;52350;51.546;7.002;2022-08-20T06:40:58;49.55;45.08;61.11;;
65653;Laerm;52350;51.546;7.002;2022-08-20T06:43:23;50.03;46.20;61.73;;
65653;Laerm;52350;51.546;7.002;2022-08-20T06:45:50;49.70;45.82;59.18;;
65653;Laerm;52350;51.546;7.002;2022-08-20T06:48:15;49.16;45.74;60.48;;
65653;Laerm;52350;51.546;7.002;2022-08-20T06:50:44;48.89;45.43;61.55;;
65653;Laerm;52350;51.546;7.002;2022-08-20T06:53:12;49.07;44.19;59.65;;
65653;Laerm;52350;51.546;7.002;2022-08-20T06:55:39;47.55;42.95;61.44;;
65653;Laerm;52350;51.546;7.002;2022-08-20T06:58:08;52.85;42.87;70.53;;
65653;Laerm;52350;51.546;7.002;2022-08-20T07:00:36;47.33;40.67;60.77;;
65653;Laerm;52350;51.546;7.002;2022-08-20T07:03:03;47.23;39.89;59.18;;
65653;Laerm;52350;51.546;7.002;2022-08-20T07:05:35;47.19;37.66;61.19;;
65653;Laerm;52350;51.546;7.002;2022-08-20T07:08:01;48.51;44.34;60.13;;
65653;Laerm;52350;51.546;7.002;2022-08-20T07:10:27;49.66;46.03;59.27;;
65653;Laerm;52350;51.546;7.002;2022-08-20T07:12:53;49.28;46.20;61.59;;
65653;Laerm;52350;51.546;7.002;2022-08-20T07:15:21;49.58;44.41;62.27;;
65653;Laerm;52350;51.546;7.002;2022-08-20T07:18:00;51.68;43.70;67.34;;
65653;Laerm;52350;51.546;7.002;2022-08-20T07:20:26;51.77;44.46;66.25;;
65653;Laerm;52350;51.546;7.002;2022-08-20T07:22:52;48.31;43.68;61.11;;
65653;Laerm;52350;51.546;7.002;2022-08-20T07:25:19;46.55;41.15;61.14;;
65653;Laerm;52350;51.546;7.002;2022-08-20T07:27:45;44.32;41.10;50.20;;
65653;Laerm;52350;51.546;7.002;2022-08-20T07:30:19;51.08;38.34;66.03;;
65653;Laerm;52350;51.546;7.002;2022-08-20T07:33:03;50.01;36.76;65.89;;
65653;Laerm;52350;51.546;7.002;2022-08-20T07:35:29;43.34;35.94;66.02;;
65653;Laerm;52350;51.546;7.002;2022-08-20T07:37:56;39.16;36.41;53.07;;
65653;Laerm;52350;51.546;7.002;2022-08-20T07:40:33;49.29;38.84;63.75;;
65653;Laerm;52350;51.546;7.002;2022-08-20T07:42:59;51.79;39.99;69.01;;
65653;Laerm;52350;51.546;7.002;2022-08-20T07:45:27;53.60;41.24;69.11;;
65653;Laerm;52350;51.546;7.002;2022-08-20T07:47:53;48.85;31.59;64.59;;
65653;Laerm;52350;51.546;7.002;2022-08-20T07:50:22;43.31;34.70;56.45;;
65653;Laerm;52350;51.546;7.002;2022-08-20T07:52:49;47.23;35.42;59.36;;
65653;Laerm;52350;51.546;7.002;2022-08-20T07:55:18;50.43;39.99;66.19;;
65653;Laerm;52350;51.546;7.002;2022-08-20T07:57:48;52.41;44.23;68.53;;
65653;Laerm;52350;51.546;7.002;2022-08-20T08:00:15;50.45;46.81;60.40;;
65653;Laerm;52350;51.546;7.002;2022-08-20T08:02:41;50.54;45.80;62.84;;
65653;Laerm;52350;51.546;7.002;2022-08-20T08:05:07;50.17;45.69;64.32;;
65653;Laerm;52350;51.546;7.002;2022-08-20T08:07:33;52.27;46.72;71.41;;
65653;Laerm;52350;51.546;7.002;2022-08-20T08:10:00;50.53;45.52;60.49;;
65653;Laerm;52350;51.546;7.002;2022-08-20T08:12:32;54.03;45.66;70.27;;
65653;Laerm;52350;51.546;7.002;2022-08-20T08:15:00;51.03;45.71;61.53;;
65653;Laerm;52350;51.546;7.002;2022-08-20T08:17:27;51.76;46.55;63.67;;
65653;Laerm;52350;51.546;7.002;2022-08-20T08:19:52;50.83;46.42;63.51;;
65653;Laerm;52350;51.546;7.002;2022-08-20T08:22:18;55.00;44.43;74.79;;
65653;Laerm;52350;51.546;7.002;2022-08-20T08:24:45;49.33;44.18;60.99;;
65653;Laerm;52350;51.546;7.002;2022-08-20T08:27:14;53.06;45.48;68.25;;
65653;Laerm;52350;51.546;7.002;2022-08-20T08:29:43;49.43;45.06;60.81;;
65653;Laerm;52350;51.546;7.002;2022-08-20T08:32:09;49.57;45.21;63.17;;
65653;Laerm;52350;51.546;7.002;2022-08-20T08:34:36;53.90;46.42;69.13;;
65653;Laerm;52350;51.546;7.002;2022-08-20T08:37:02;50.29;45.64;63.37;;
65653;Laerm;52350;51.546;7.002;2022-08-20T08:39:29;49.51;44.02;61.43;;
65653;Laerm;52350;51.546;7.002;2022-08-20T08:41:55;53.29;46.32;67.00;;
65653;Laerm;52350;51.546;7.002;2022-08-20T08:44:29;51.18;46.19;77.57;;
65653;Laerm;52350;51.546;7.002;2022-08-20T08:47:00;53.37;42.31;81.19;;
65653;Laerm;52350;51.546;7.002;2022-08-20T08:49:30;54.87;41.65;79.37;;
65653;Laerm;52350;51.546;7.002;2022-08-20T08:52:08;50.64;46.27;63.35;;
65653;Laerm;52350;51.546;7.002;2022-08-20T08:54:46;52.53;45.80;68.30;;
65653;Laerm;52350;51.546;7.002;2022-08-20T08:57:13;50.76;44.95;62.27;;
65653;Laerm;52350;51.546;7.002;2022-08-20T08:59:38;48.80;41.60;64.14;;
65653;Laerm;52350;51.546;7.002;2022-08-20T09:02:06;51.41;43.32;65.07;;
65653;Laerm;52350;51.546;7.002;2022-08-20T09:04:34;49.70;38.13;62.64;;
65653;Laerm;52350;51.546;7.002;2022-08-20T09:07:03;46.15;36.88;62.43;;
65653;Laerm;52350;51.546;7.002;2022-08-20T09:09:35;51.34;37.88;70.67;;
65653;Laerm;52350;51.546;7.002;2022-08-20T09:12:08;49.86;42.94;58.32;;
65653;Laerm;52350;51.546;7.002;2022-08-20T09:14:34;54.01;46.28;68.51;;
65653;Laerm;52350;51.546;7.002;2022-08-20T09:17:00;50.80;46.91;61.74;;
65653;Laerm;52350;51.546;7.002;2022-08-20T09:19:25;55.42;46.31;71.50;;
65653;Laerm;52350;51.546;7.002;2022-08-20T09:21:51;53.43;46.42;67.63;;
65653;Laerm;52350;51.546;7.002;2022-08-20T09:24:16;50.74;46.91;62.52;;
65653;Laerm;52350;51.546;7.002;2022-08-20T09:26:42;53.71;46.56;65.20;;
65653;Laerm;52350;51.546;7.002;2022-08-20T09:29:08;50.21;45.84;61.40;;
65653;Laerm;52350;51.546;7.002;2022-08-20T09:31:34;55.23;46.35;71.07;;
65653;Laerm;52350;51.546;7.002;2022-08-20T09:33:59;49.76;39.29;64.72;;
65653;Laerm;52350;51.546;7.002;2022-08-20T09:36:25;49.27;46.00;59.18;;
65653;Laerm;52350;51.546;7.002;2022-08-20T09:38:52;48.90;45.60;58.57;;
65653;Laerm;52350;51.546;7.002;2022-08-20T09:41:18;51.10;45.14;65.32;;
65653;Laerm;52350;51.546;7.002;2022-08-20T09:43:43;44.59;40.01;57.50;;
65653;Laerm;52350;51.546;7.002;2022-08-20T09:46:09;47.46;39.07;63.65;;
65653;Laerm;52350;51.546;7.002;2022-08-20T09:48:34;42.50;35.54;55.52;;
65653;Laerm;52350;51.546;7.002;2022-08-20T09:51:00;46.60;34.93;63.38;;
65653;Laerm;52350;51.546;7.002;2022-08-20T09:53:25;46.38;34.48;64.28;;
65653;Laerm;52350;51.546;7.002;2022-08-20T09:55:53;43.93;36.85;59.81;;
65653;Laerm;52350;51.546;7.002;2022-08-20T10:00:45;48.56;39.35;64.78;;
65653;Laerm;52350;51.546;7.002;2022-08-20T10:03:11;50.54;37.46;73.64;;
65653;Laerm;52350;51.546;7.002;2022-08-20T10:05:36;52.33;37.48;69.58;;
65653;Laerm;52350;51.546;7.002;2022-08-20T10:08:06;48.61;35.01;65.29;;
65653;Laerm;52350;51.546;7.002;2022-08-20T10:10:32;47.49;35.21;64.86;;
65653;Laerm;52350;51.546;7.002;2022-08-20T10:12:57;49.44;36.07;60.65;;
65653;Laerm;52350;51.546;7.002;2022-08-20T10:15:22;43.42;36.37;54.99;;
65653;Laerm;52350;51.546;7.002;2022-08-20T10:17:48;45.43;36.75;62.85;;
65653;Laerm;52350;51.546;7.002;2022-08-20T10:20:14;43.28;38.24;56.24;;
65653;Laerm;52350;51.546;7.002;2022-08-20T10:22:40;43.25;37.15;55.64;;
65653;Laerm;52350;51.546;7.002;2022-08-20T10:25:06;41.68;36.57;56.31;;
65653;Laerm;52350;51.546;7.002;2022-08-20T10:27:32;43.00;35.93;57.93;;
65653;Laerm;52350;51.546;7.002;2022-08-20T10:29:58;59.65;35.87;82.92;;
65653;Laerm;52350;51.546;7.002;2022-08-20T10:32:23;43.65;36.02;60.28;;
65653;Laerm;52350;51.546;7.002;2022-08-20T10:34:49;41.81;35.63;59.21;;
65653;Laerm;52350;51.546;7.002;2022-08-20T10:37:17;47.51;36.74;63.10;;
65653;Laerm;52350;51.546;7.002;2022-08-20T10:39:43;43.73;37.44;58.13;;
65653;Laerm;52350;51.546;7.002;2022-08-20T10:42:09;51.36;37.82;68.38;;
65653;Laerm;52350;51.546;7.002;2022-08-20T10:44:35;41.43;36.10;56.03;;
65653;Laerm;52350;51.546;7.002;2022-08-20T10:49:38;42.97;36.69;60.95;;
65653;Laerm;52350;51.546;7.002;2022-08-20T10:52:03;42.98;36.18;59.13;;
65653;Laerm;52350;51.546;7.002;2022-08-20T10:54:29;47.39;39.19;61.10;;
65653;Laerm;52350;51.546;7.002;2022-08-20T10:56:54;52.50;36.78;70.57;;
65653;Laerm;52350;51.546;7.002;2022-08-20T10:59:20;42.79;35.90;59.93;;
65653;Laerm;52350;51.546;7.002;2022-08-20T11:01:45;53.70;37.00;66.69;;
65653;Laerm;52350;51.546;7.002;2022-08-20T11:04:11;40.31;34.08;53.69;;
65653;Laerm;52350;51.546;7.002;2022-08-20T11:06:36;46.10;34.01;62.89;;
65653;Laerm;52350;51.546;7.002;2022-08-20T11:09:01;40.70;34.98;55.16;;
65653;Laerm;52350;51.546;7.002;2022-08-20T11:11:27;42.70;36.42;59.98;;
65653;Laerm;52350;51.546;7.002;2022-08-20T11:13:52;50.97;36.84;68.71;;
65653;Laerm;52350;51.546;7.002;2022-08-20T11:16:18;48.52;34.45;65.29;;
65653;Laerm;52350;51.546;7.002;2022-08-20T11:18:43;50.56;35.95;68.41;;
65653;Laerm;52350;51.546;7.002;2022-08-20T11:21:09;50.94;37.16;67.05;;
65653;Laerm;52350;51.546;7.002;2022-08-20T11:23:34;56.06;36.87;73.63;;
65653;Laerm;52350;51.546;7.002;2022-08-20T11:26:00;42.48;37.04;60.62;;
65653;Laerm;52350;51.546;7.002;2022-08-20T11:28:25;42.42;39.44;55.77;;
65653;Laerm;52350;51.546;7.002;2022-08-20T11:30:54;54.13;36.02;71.17;;
65653;Laerm;52350;51.546;7.002;2022-08-20T11:33:20;41.95;34.80;54.36;;
65653;Laerm;52350;51.546;7.002;2022-08-20T11:35:45;46.37;35.13;64.56;;
65653;Laerm;52350;51.546;7.002;2022-08-20T11:38:11;50.27;37.55;69.87;;
65653;Laerm;52350;51.546;7.002;2022-08-20T11:40:36;42.81;35.74;57.32;;
65653;Laerm;52350;51.546;7.002;2022-08-20T11:43:02;43.82;36.19;55.00;;
65653;Laerm;52350;51.546;7.002;2022-08-20T11:45:28;46.29;37.69;63.03;;
65653;Laerm;52350;51.546;7.002;2022-08-20T11:47:53;41.07;38.21;52.15;;
65653;Laerm;52350;51.546;7.002;2022-08-20T11:50:20;45.75;39.40;58.31;;
65653;Laerm;52350;51.546;7.002;2022-08-20T11:52:45;41.79;38.43;53.05;;
65653;Laerm;52350;51.546;7.002;2022-08-20T11:55:13;51.40;35.42;70.38;;
65653;Laerm;52350;51.546;7.002;2022-08-20T11:57:42;42.38;37.78;59.32;;
65653;Laerm;52350;51.546;7.002;2022-08-20T12:00:12;47.94;37.07;65.96;;
65653;Laerm;52350;51.546;7.002;2022-08-20T12:02:39;41.41;35.67;59.69;;
65653;Laerm;52350;51.546;7.002;2022-08-20T12:05:05;45.41;35.67;60.00;;
65653;Laerm;52350;51.546;7.002;2022-08-20T12:07:31;50.44;38.43;67.56;;
65653;Laerm;52350;51.546;7.002;2022-08-20T12:09:56;40.66;36.60;47.54;;
65653;Laerm;52350;51.546;7.002;2022-08-20T12:12:23;49.43;38.67;67.87;;
65653;Laerm;52350;51.546;7.002;2022-08-20T12:14:53;51.12;38.29;73.13;;
65653;Laerm;52350;51.546;7.002;2022-08-20T12:17:27;43.38;39.27;57.81;;
65653;Laerm;52350;51.546;7.002;2022-08-20T12:19:54;43.28;38.03;59.75;;
65653;Laerm;52350;51.546;7.002;2022-08-20T12:22:20;42.87;38.07;54.50;;
65653;Laerm;52350;51.546;7.002;2022-08-20T12:24:46;50.40;35.60;65.70;;
65653;Laerm;52350;51.546;7.002;2022-08-20T12:27:22;40.34;35.95;53.17;;
65653;Laerm;52350;51.546;7.002;2022-08-20T12:29:50;51.51;36.26;66.55;;
65653;Laerm;52350;51.546;7.002;2022-08-20T12:32:21;41.37;36.25;63.83;;
65653;Laerm;52350;51.546;7.002;2022-08-20T12:34:47;38.22;33.21;58.67;;
65653;Laerm;52350;51.546;7.002;2022-08-20T12:37:16;52.84;35.43;69.44;;
65653;Laerm;52350;51.546;7.002;2022-08-20T12:39:44;50.27;33.90;71.98;;
65653;Laerm;52350;51.546;7.002;2022-08-20T12:42:10;38.99;32.35;50.70;;
65653;Laerm;52350;51.546;7.002;2022-08-20T12:44:37;47.77;32.24;67.36;;
65653;Laerm;52350;51.546;7.002;2022-08-20T12:49:54;48.38;32.72;68.15;;
65653;Laerm;52350;51.546;7.002;2022-08-20T12:52:22;37.28;32.18;48.86;;
65653;Laerm;52350;51.546;7.002;2022-08-20T12:54:48;40.65;31.08;55.41;;
65653;Laerm;52350;51.546;7.002;2022-08-20T12:57:33;48.81;31.16;67.08;;
65653;Laerm;52350;51.546;7.002;2022-08-20T13:00:11;50.03;32.57;69.33;;
65653;Laerm;52350;51.546;7.002;2022-08-20T13:02:37;39.87;32.66;59.12;;
65653;Laerm;52350;51.546;7.002;2022-08-20T13:05:06;49.18;32.72;64.30;;
65653;Laerm;52350;51.546;7.002;2022-08-20T13:07:32;36.50;30.75;46.38;;
65653;Laerm;52350;51.546;7.002;2022-08-20T13:09:58;37.96;32.77;51.47;;
65653;Laerm;52350;51.546;7.002;2022-08-20T13:12:24;48.32;34.82;67.74;;
65653;Laerm;52350;51.546;7.002;2022-08-20T13:14:49;37.00;30.91;47.89;;
65653;Laerm;52350;51.546;7.002;2022-08-20T13:17:16;50.70;31.34;67.98;;
65653;Laerm;52350;51.546;7.002;2022-08-20T13:19:42;45.59;31.51;64.09;;
65653;Laerm;52350;51.546;7.002;2022-08-20T13:22:10;35.27;30.78;44.42;;
65653;Laerm;52350;51.546;7.002;2022-08-20T13:24:36;47.06;30.20;67.45;;
65653;Laerm;52350;51.546;7.002;2022-08-20T13:29:30;40.95;32.63;51.72;;
65653;Laerm;52350;51.546;7.002;2022-08-20T13:31:55;44.27;32.75;61.48;;
65653;Laerm;52350;51.546;7.002;2022-08-20T13:34:21;65.12;31.71;85.50;;
65653;Laerm;52350;51.546;7.002;2022-08-20T13:36:46;48.46;32.23;66.30;;
65653;Laerm;52350;51.546;7.002;2022-08-20T13:39:12;50.21;31.71;69.96;;
65653;Laerm;52350;51.546;7.002;2022-08-20T13:41:37;39.36;31.92;50.23;;
65653;Laerm;52350;51.546;7.002;2022-08-20T13:44:03;38.58;32.35;47.38;;
65653;Laerm;52350;51.546;7.002;2022-08-20T13:46:28;40.23;32.04;55.74;;
65653;Laerm;52350;51.546;7.002;2022-08-20T13:48:54;51.94;32.91;71.26;;
65653;Laerm;52350;51.546;7.002;2022-08-20T13:51:19;45.83;32.38;62.57;;
65653;Laerm;52350;51.546;7.002;2022-08-20T13:53:45;51.08;31.64;71.24;;
65653;Laerm;52350;51.546;7.002;2022-08-20T13:56:10;39.21;31.76;64.32;;
65653;Laerm;52350;51.546;7.002;2022-08-20T13:58:36;47.57;31.66;65.87;;
65653;Laerm;52350;51.546;7.002;2022-08-20T14:01:02;51.71;30.61;83.08;;